Tiempo atmosférico en la estación meteorológica de Ripoll, Girona (671 m.)



Fecha
DESCASC
Temp. máxima en grados centígrados (hora)
DESCASC
Temp. mínima en grados centígrados (hora)
DESCASC
Temp. media en grados centígrados
DESCASC
Racha de viento máxima en m/sg (hora)
DESCASC
Velocidad máxima media en intervalos de 10 minutos(hora)
DESCASC
Precipitaciones diarias en mm
DESCASC
Precipitaciones de 00:00 a 06:00 en mm
DESCASC
Precipitaciones de 06:00 a 12:00 en mm
DESCASC
Precipitaciones de 12:00 a 18:00 en mm
DESCASC
Precipitaciones de 18:00 a 24:00 en mm
DESCASC
17-02-2019 16.5 (14:30) -4.6 (07:50) 6 6.67 (16:10) 3.33 (16:40) 0 0 0 0 0
16-02-2019 17.8 (15:10) -4.7 (08:10) 6.5 6.11 (15:00) 3.33 (14:30) 0 0 0 0 0
15-02-2019 16.2 (15:10) -4.6 (07:30) 5.8 7.22 (15:50) 3.33 (15:50) 0 0 0 0 0
14-02-2019 15.3 (14:40) -4 (-00:0) 5.7 6.39 (13:40) 3.61 (15:20) 0 0 0 0 0
13-02-2019 14.2 (15:30) -3.6 (-00:0) 5.3 6.94 (14:10) 3.33 (13:00) 0 0 0 0 0
12-02-2019 13.4 (15:10) -3.6 (-00:0) 4.9 5.83 (15:00) 3.06 (13:40) 0 0 0 0 0
11-02-2019 11.7 (17:00) -0.6 (-00:0) 5.5 6.11 (11:50) 3.33 (11:50) 0 0 0 0 0
10-02-2019 13.3 (16:40) 0.1 (00:00) 6.7 8.61 (13:30) 4.44 (13:30) 0 0 0 0 0
09-02-2019 14.2 (15:20) 0 (00:00) 7.1 6.39 (14:10) 3.33 (14:10) 0 0 0 0 0
08-02-2019 13.1 (14:50) 0.9 (00:00) 7 5 (14:40) 2.78 (14:40) 0 0 0 0 0
07-02-2019 14.1 (13:10) -0.3 (00:00) 6.9 6.94 (13:50) 3.33 (15:10) 0 0 0 0 0
06-02-2019 15.6 (15:30) -1.9 (-00:0) 6.9 5.28 (14:30) 2.5 (14:30) 0 0 0 0 0
05-02-2019 14.8 (15:30) -0.4 (00:00) 7.2 5.83 (13:20) 3.33 (14:30) 0 0 0 0 0
04-02-2019 11.2 (14:20) -5.5 (-00:0) 2.8 9.17 (00:10) 3.61 (00:40) 0 0 0 0 0
03-02-2019 7.2 (13:10) 0 (00:00) 3.6 13.61 (14:20) 5 (11:20) 0 0 0 0 0
02-02-2019 7.3 (16:20) 1.9 (00:00) 4.6 9.44 (17:00) 3.33 (00:30) 0.5 0.5 0 0 0
01-02-2019 11.1 (14:10) 3.3 (00:00) 7.2 10.56 (14:30) 5 (14:20) 4.6 1.2 3.4 0 0
31-01-2019 10.6 (15:30) -2.9 (-00:0) 3.9 6.39 (12:50) 3.06 (12:00) 0 0 0 0 0
30-01-2019 9.7 (15:10) -2 (-00:0) 3.8 7.78 (16:30) 3.33 (12:20) 0 0 0 0 0
29-01-2019 3.6 (00:10) -1.1 (-00:0) 1.2 8.61 (02:10) 3.89 (02:20) 0 0 0 0 0
28-01-2019 6 (00:20) -2.3 (-00:0) 1.9 10.56 (00:50) 3.89 (23:20) 9.1 0 0.8 5.9 2.4
27-01-2019 10.7 (13:40) -1.2 (-00:0) 4.7 10.83 (23:00) 3.61 (22:50) 0.8 0 0 0.8 0
26-01-2019 12.4 (13:10) -1.7 (-00:0) 5.3 8.61 (13:40) 5 (13:40) 0 0 0 0 0
25-01-2019 14 (13:50) 4.1 (00:00) 9 16.94 (04:40) 5.28 (06:20) 0 0 0 0 0
24-01-2019 7 (14:00) -1.4 (-00:0) 2.8 18.06 (09:20) 5.83 (13:10) 0 0 0 0 0
23-01-2019 2.8 (17:40) -3.7 (-00:0) -0.5 11.67 (18:00) 2.5 (18:00) 1.8 0 0.2 1 0.6
22-01-2019 6.7 (14:00) -4.9 (-00:0) 0.9 6.39 (13:50) 3.06 (15:10) 0 0 0 0 0
21-01-2019 9.2 (14:40) -3.5 (-00:0) 2.8 8.61 (13:30) 3.33 (13:30) 0 0 0 0 0
20-01-2019 7.6 (16:10) -1.6 (-00:0) 3 5.83 (12:20) 2.5 (14:30) 0.3 0 0.3 0 0
19-01-2019 8 (14:40) -3.8 (-00:0) 2.1 5.56 (14:10) 3.06 (15:20) 0 0 0 0 0

Gráficas

Temp. máximas Temp. mínimas Temp. medias Precipitaciones Rachas de viento máximas Velocidades máximas media en intervalos de 10 minutos

Datos horarios

Fecha y hora oficial Temperatura (ºC) Velocidad del viento (km/h) Dirección del viento Racha (km/h) Dirección de racha Precipitación (mm) Presión (hPa) Tendencia (hPa) Humedad (%)
2019-02-17 23:00:00 0.2 0 Calma 0 Calma 0 -- -- 78
2019-02-17 22:00:00 1.5 0 Calma 0 Calma 0 -- -- 75
2019-02-17 21:00:00 3 0 Calma 3 Sudeste 0 -- -- 69
2019-02-17 20:00:00 5 0 Calma 4 Sur 0 -- -- 59
2019-02-17 19:00:00 8 2 Sudeste 7 Sur 0 -- -- 47
2019-02-17 18:00:00 12.5 8 Sur 17 Sur 0 -- -- 35
2019-02-17 17:00:00 15.4 10 Sur 24 Sur 0 -- -- 30
2019-02-17 16:00:00 16 9 Sur 22 Sur 0 -- -- 28
2019-02-17 15:00:00 16.3 8 Sudeste 20 Sur 0 -- -- 29
2019-02-17 14:00:00 16.1 9 Sur 23 Sur 0 -- -- 30
2019-02-17 13:00:00 15.1 10 Sudeste 20 Sur 0 -- -- 32
2019-02-17 12:00:00 12.3 5 Sur 12 Sur 0 -- -- 42
2019-02-17 11:00:00 5.4 0 Calma 5 Sur 0 -- -- 64
2019-02-17 10:00:00 -0.4 0 Calma 4 Noroeste 0 -- -- 87
2019-02-17 09:00:00 -4.4 0 Calma 6 Norte 0 -- -- 89
2019-02-17 08:00:00 -4.6 0 Calma 6 Norte 0 -- -- 89
2019-02-17 07:00:00 -4.1 0 Calma 8 Noroeste 0 -- -- 88
2019-02-17 06:00:00 -4 0 Calma 5 Norte 0 -- -- 87
2019-02-17 05:00:00 -3.6 0 Calma 6 Norte 0 -- -- 85
2019-02-17 04:00:00 -3 0 Calma 6 Norte 0 -- -- 83
2019-02-17 03:00:00 -2.7 2 Norte 5 Norte 0 -- -- 81
2019-02-17 02:00:00 -2.3 0 Calma 6 Norte 0 -- -- 79
2019-02-17 01:00:00 -1.8 0 Calma 4 Norte 0 -- -- 77
2019-02-17 00:00:00 -1.1 0 Calma 7 Noroeste 0 -- -- 74
2019-02-16 23:00:00 -0.3 0 Calma 5 Norte 0 -- -- 71
2019-02-16 22:00:00 1 0 Calma 6 Noroeste 0 -- -- 66
2019-02-16 21:00:00 2.3 0 Calma 4 Noroeste 0 -- -- 61
2019-02-16 20:00:00 4.1 0 Calma 3 Nordeste 0 -- -- 51
2019-02-16 19:00:00 7.3 0 Calma 3 Nordeste 0 -- -- 40
2019-02-16 18:00:00 11.6 0 Calma 8 Sur 0 -- -- 27
2019-02-16 17:00:00 17.6 4 Sur 17 Sur 0 -- -- 20
2019-02-16 16:00:00 17.5 8 Sur 21 Sur 0 -- -- 20
2019-02-16 15:00:00 17.5 8 Sur 22 Sur 0 -- -- 22
2019-02-16 14:00:00 17.6 8 Sur 18 Sur 0 -- -- 22
2019-02-16 13:00:00 16.1 8 Sudeste 17 Sur 0 -- -- 27
2019-02-16 12:00:00 11.5 2 Sudeste 6 Sudeste 0 -- -- 45
2019-02-16 11:00:00 5.6 0 Calma 3 Este 0 -- -- 62
2019-02-16 10:00:00 -0.9 0 Calma 6 Noroeste 0 -- -- 89
2019-02-16 09:00:00 -4.6 0 Calma 6 Norte 0 -- -- 91
2019-02-16 08:00:00 -4.5 2 Norte 7 Norte 0 -- -- 91
2019-02-16 07:00:00 -4.2 0 Calma 8 Norte 0 -- -- 89
2019-02-16 06:00:00 -3.6 0 Calma 10 Norte 0 -- -- 88
2019-02-16 05:00:00 -3.2 0 Calma 7 Norte 0 -- -- 86
2019-02-16 04:00:00 -2.9 0 Calma 6 Norte 0 -- -- 85
2019-02-16 03:00:00 -2.5 2 Norte 6 Noroeste 0 -- -- 83
2019-02-16 02:00:00 -2.2 0 Calma 5 Noroeste 0 -- -- 81
2019-02-16 01:00:00 -1.6 0 Calma 6 Norte 0 -- -- 78
2019-02-16 00:00:00 -1 0 Calma 5 Noroeste 0 -- -- 75
2019-02-15 23:00:00 0 0 Calma 6 Norte 0 -- -- 71
2019-02-15 22:00:00 1.1 0 Calma 6 Norte 0 -- -- 66
2019-02-15 21:00:00 2.7 0 Calma 4 Nordeste 0 -- -- 58
2019-02-15 20:00:00 4.3 2 Nordeste 5 Nordeste 0 -- -- 49
2019-02-15 19:00:00 7.5 0 Calma 5 Sudeste 0 -- -- 39
2019-02-15 18:00:00 12.1 3 Sur 18 Sur 0 -- -- 27
2019-02-15 17:00:00 15.3 10 Sur 20 Sudeste 0 -- -- 24
2019-02-15 16:00:00 16 10 Sur 26 Sur 0 -- -- 23
2019-02-15 15:00:00 16.1 10 Sur 23 Sur 0 -- -- 24
2019-02-15 14:00:00 15.7 9 Sur 20 Sur 0 -- -- 25
2019-02-15 13:00:00 14.9 9 Sur 22 Sur 0 -- -- 28
2019-02-15 12:00:00 11.8 5 Sudeste 12 Sudeste 0 -- -- 41
2019-02-15 11:00:00 5.3 0 Calma 3 Sudeste 0 -- -- 61
2019-02-15 10:00:00 -0.5 0 Calma -- -- 0 -- -- 86
2019-02-15 09:00:00 -4.3 0 Calma -- -- 0 -- -- 91
2019-02-15 08:00:00 -4.6 0 Calma -- -- 0 -- -- 90
2019-02-15 07:00:00 -4.2 0 Calma 3 Noroeste 0 -- -- 89
2019-02-15 06:00:00 -3.6 0 Calma 4 Noroeste 0 -- -- 89
2019-02-15 05:00:00 -3.2 3 Norte 6 Noroeste 0 -- -- 89
2019-02-15 04:00:00 -2.9 0 Calma 4 Noroeste 0 -- -- 89
2019-02-15 03:00:00 -2.5 0 Calma -- -- 0 -- -- 87
2019-02-15 02:00:00 -2.1 0 Calma -- -- 0 -- -- 85
2019-02-15 01:00:00 -1.6 0 Calma 0 Calma 0 -- -- 83
2019-02-15 00:00:00 -1 0 Calma 0 Calma 0 -- -- 80
2019-02-14 23:00:00 -0.2 0 Calma 2 Sur 0 -- -- 76
2019-02-14 22:00:00 0.7 0 Calma 2 Sudeste 0 -- -- 69
2019-02-14 21:00:00 2.2 0 Calma 0 Calma 0 -- -- 59
2019-02-14 20:00:00 4.4 0 Calma 6 Sudeste 0 -- -- 49
2019-02-14 19:00:00 7.3 2 Sudeste 6 Sur 0 -- -- 38
2019-02-14 18:00:00 11.1 3 Sur 17 Sur 0 -- -- 25
2019-02-14 17:00:00 14.3 11 Sur 21 Sur 0 -- -- 22
2019-02-14 16:00:00 14.8 12 Sur 23 Sur 0 -- -- 22
2019-02-14 15:00:00 15.2 9 Sur 21 Sur 0 -- -- 24
2019-02-14 14:00:00 14.8 10 Sur 23 Sudeste 0 -- -- 25
2019-02-14 13:00:00 13.8 12 Sudeste 22 Sudeste 0 -- -- 27
2019-02-14 12:00:00 10.8 7 Sur 17 Sur 0 -- -- 45
2019-02-14 11:00:00 4.3 2 Sudeste 5 Sudeste 0 -- -- 74
2019-02-14 10:00:00 -0.3 0 Calma -- -- 0 -- -- 98
2019-02-14 09:00:00 -3.8 0 Calma 2 Sudeste 0 -- -- 96
2019-02-14 08:00:00 -3.8 0 Calma 2 Sur 0 -- -- 96
2019-02-14 07:00:00 -3.6 0 Calma -- -- 0 -- -- 96
2019-02-14 06:00:00 -3.1 0 Calma 0 Calma 0 -- -- 95
2019-02-14 05:00:00 -2.7 0 Calma 0 Calma 0 -- -- 95
2019-02-14 04:00:00 -2.1 0 Calma 3 Sudoeste 0 -- -- 94
2019-02-14 03:00:00 -1.4 0 Calma 5 Noroeste 0 -- -- 93
2019-02-14 02:00:00 -1.1 0 Calma 3 Norte 0 -- -- 93
2019-02-14 01:00:00 -1 0 Calma -- -- 0 -- -- 90
2019-02-14 00:00:00 -0.4 0 Calma -- -- 0 -- -- 88
2019-02-13 23:00:00 0.5 0 Calma 2 Sur 0 -- -- 85
2019-02-13 22:00:00 1.5 0 Calma 2 Nordeste 0 -- -- 81
2019-02-13 21:00:00 3 0 Calma 3 Este 0 -- -- 77
2019-02-13 20:00:00 4.8 0 Calma 4 Sur 0 -- -- 69
2019-02-13 19:00:00 7.7 3 Sudeste 9 Sur 0 -- -- 57
2019-02-13 18:00:00 11 3 Sur 19 Sur 0 -- -- 45
2019-02-13 17:00:00 13.6 9 Sur 19 Sur 0 -- -- 39
2019-02-13 16:00:00 14 9 Sur 21 Sur 0 -- -- 38
2019-02-13 15:00:00 14 9 Sur 25 Sur 0 -- -- 38
2019-02-13 14:00:00 13.6 12 Sur 23 Sudeste 0 -- -- 39
2019-02-13 13:00:00 12.7 12 Sur 22 Sur 0 -- -- 38
2019-02-13 12:00:00 9.3 0 Calma 7 Sur 0 -- -- 47
2019-02-13 11:00:00 4.3 0 Calma 5 Sur 0 -- -- 68
2019-02-13 10:00:00 -0.7 0 Calma 5 Noroeste 0 -- -- 90
2019-02-13 09:00:00 -3.4 2 Noroeste 12 Norte 0 -- -- 93
2019-02-13 08:00:00 -3.5 4 Norte 10 Noroeste 0 -- -- 92
2019-02-13 07:00:00 -3.1 5 Norte 16 Noroeste 0 -- -- 92
2019-02-13 06:00:00 -2.9 4 Norte 16 Noroeste 0 -- -- 92
2019-02-13 05:00:00 -3 0 Calma 13 Norte 0 -- -- 91
2019-02-13 04:00:00 -2.9 0 Calma 6 Noroeste 0 -- -- 90
2019-02-13 03:00:00 -2.4 0 Calma 9 Norte 0 -- -- 89
2019-02-13 02:00:00 -1.9 0 Calma 7 Noroeste 0 -- -- 88
2019-02-13 01:00:00 -1.6 0 Calma 5 Norte 0 -- -- 85
2019-02-13 00:00:00 -0.8 2 Norte 9 Noroeste 0 -- -- 84
2019-02-12 23:00:00 0 2 Norte 6 Norte 0 -- -- 81
2019-02-12 22:00:00 0.7 0 Calma 6 Norte 0 -- -- 77
2019-02-12 21:00:00 2.1 2 Norte 5 Norte 0 -- -- 71
2019-02-12 20:00:00 3.7 0 Calma 5 Norte 0 -- -- 65
2019-02-12 19:00:00 6.1 0 Calma 6 Sudeste 0 -- -- 52
2019-02-12 18:00:00 9.6 0 Calma 15 Sur 0 -- -- 40
2019-02-12 17:00:00 13.1 7 Sur 17 Sur 0 -- -- 34
2019-02-12 16:00:00 13.3 10 Sur 19 Sur 0 -- -- 34
2019-02-12 15:00:00 13.2 8 Sudeste 21 Sudeste 0 -- -- 33
2019-02-12 14:00:00 13 9 Sur 21 Sur 0 -- -- 34
2019-02-12 13:00:00 11.9 9 Sur 17 Sur 0 -- -- 33
2019-02-12 12:00:00 8.8 0 Calma 6 Sudeste 0 -- -- 53
2019-02-12 11:00:00 4.2 0 Calma 5 Este 0 -- -- 70
2019-02-12 10:00:00 -1.4 0 Calma 5 Noroeste 0 -- -- 91
2019-02-12 09:00:00 -3.3 0 Calma 6 Sudeste 0 -- -- 93
2019-02-12 08:00:00 -3.1 3 Norte 13 Noroeste 0 -- -- 93
2019-02-12 07:00:00 -3.5 0 Calma 8 Oeste 0 -- -- 93
2019-02-12 06:00:00 -3.3 0 Calma 6 Norte 0 -- -- 92
2019-02-12 05:00:00 -2.8 0 Calma 9 Sudeste 0 -- -- 90
2019-02-12 04:00:00 -2.2 0 Calma 9 Noroeste 0 -- -- 89
2019-02-12 03:00:00 -1.7 0 Calma 8 Noroeste 0 -- -- 87
2019-02-12 02:00:00 -1.5 2 Norte 8 Noroeste 0 -- -- 86
2019-02-12 01:00:00 -1.1 2 Nordeste 8 Norte 0 -- -- 84
2019-02-12 00:00:00 -0.6 2 Sudeste 6 Nordeste 0 -- -- 82
2019-02-11 23:00:00 0.1 0 Calma 5 Sur 0 -- -- 77
2019-02-11 22:00:00 1.2 3 Sudeste 6 Sudeste 0 -- -- 70
2019-02-11 21:00:00 2.2 0 Calma 5 Sudoeste 0 -- -- 64
2019-02-11 20:00:00 3.9 4 Sur 9 Sur 0 -- -- 58
2019-02-11 19:00:00 5.5 0 Calma 10 Norte 0 -- -- 52
2019-02-11 18:00:00 9.1 4 Noroeste 12 Noroeste 0 -- -- 40
2019-02-11 17:00:00 11.5 5 Sudoeste 14 Sur 0 -- -- 46
2019-02-11 16:00:00 11.2 8 Sur 19 Sur 0 -- -- 47
2019-02-11 15:00:00 10.8 8 Sur 16 Sudoeste 0 -- -- 52
2019-02-11 14:00:00 9.8 8 Sur 16 Sudoeste 0 -- -- 59
2019-02-11 13:00:00 9.6 8 Sur 22 Sudeste 0 -- -- 65
2019-02-11 12:00:00 8.7 10 Sudeste 22 Sudeste 0 -- -- 72
2019-02-11 11:00:00 7.3 8 Sur 18 Sur 0 -- -- 80
2019-02-11 10:00:00 2.1 0 Calma 5 Noroeste 0 -- -- 92
2019-02-11 09:00:00 -0.4 0 Calma 5 Noroeste 0 -- -- 93
2019-02-11 08:00:00 -0.3 0 Calma 9 Noroeste 0 -- -- 94
2019-02-11 07:00:00 0 2 Noroeste 9 Noroeste 0 -- -- 96
2019-02-11 06:00:00 0.3 0 Calma 9 Sudoeste 0 -- -- 95
2019-02-11 05:00:00 0.7 0 Calma 5 Norte 0 -- -- 93
2019-02-11 04:00:00 2.1 0 Calma 9 Nordeste 0 -- -- 92
2019-02-11 03:00:00 3.4 4 Nordeste 11 Norte 0 -- -- 90
2019-02-11 02:00:00 4.2 6 Nordeste 12 Nordeste 0 -- -- 91
2019-02-11 01:00:00 4.4 4 Nordeste 10 Nordeste 0 -- -- 90
2019-02-11 00:00:00 4.6 2 Nordeste 4 Nordeste 0 -- -- 90
2019-02-10 23:00:00 4.4 2 Sur 9 Noroeste 0 -- -- 89
2019-02-10 22:00:00 4.7 0 Calma 6 Sudoeste 0 -- -- 86
2019-02-10 21:00:00 6 0 Calma 3 Sudoeste 0 -- -- 81
2019-02-10 20:00:00 7 0 Calma 4 Norte 0 -- -- 76
2019-02-10 19:00:00 8.5 0 Calma 3 Sur 0 -- -- 67
2019-02-10 18:00:00 11.3 2 Sur 12 Sudeste 0 -- -- 59
2019-02-10 17:00:00 13.1 5 Sur 22 Sur 0 -- -- 54
2019-02-10 16:00:00 13 12 Sur 22 Sur 0 -- -- 54
2019-02-10 15:00:00 12.7 9 Sur 24 Sudeste 0 -- -- 56
2019-02-10 14:00:00 11.8 14 Sur 31 Sudeste 0 -- -- 58
2019-02-10 13:00:00 11.7 10 Sur 29 Sur 0 -- -- 59
2019-02-10 12:00:00 10.1 13 Sur 27 Sur 0 -- -- 62
2019-02-10 11:00:00 8.2 14 Sur 26 Sur 0 -- -- 73
2019-02-10 10:00:00 5.4 8 Sudoeste 16 Sur 0 -- -- 89
2019-02-10 09:00:00 1.1 0 Calma 6 Sudeste 0 -- -- 96
2019-02-10 08:00:00 0.4 0 Calma 4 Sur 0 -- -- 95
2019-02-10 07:00:00 1.4 0 Calma 5 Sur 0 -- -- 95
2019-02-10 06:00:00 1.6 0 Calma 8 Sudeste 0 -- -- 94
2019-02-10 05:00:00 1.8 3 Sur 6 Sur 0 -- -- 94
2019-02-10 04:00:00 1.9 0 Calma 5 Sur 0 -- -- 93
2019-02-10 03:00:00 1.9 0 Calma 6 Sur 0 -- -- 93
2019-02-10 02:00:00 2.1 2 Sur 5 Sudeste 0 -- -- 92
2019-02-10 01:00:00 2.4 0 Calma 4 Este 0 -- -- 90
2019-02-10 00:00:00 2.6 0 Calma 3 Sudeste 0 -- -- 89
2019-02-09 23:00:00 2.8 0 Calma 2 Sudeste 0 -- -- 87
2019-02-09 22:00:00 3 0 Calma 2 Sudeste 0 -- -- 84
2019-02-09 21:00:00 4.1 0 Calma 6 Sudeste 0 -- -- 81
2019-02-09 20:00:00 5.4 0 Calma 3 Norte 0 -- -- 73
2019-02-09 19:00:00 7.7 0 Calma 6 Sur 0 -- -- 62
2019-02-09 18:00:00 11 3 Sur 18 Sur 0 -- -- 49
2019-02-09 17:00:00 12.9 11 Sur 23 Sur 0 -- -- 45
2019-02-09 16:00:00 14 8 Sur 18 Sudeste 0 -- -- 44
2019-02-09 15:00:00 13.9 8 Sudeste 23 Sudoeste 0 -- -- 41
2019-02-09 14:00:00 13.6 10 Sur 22 Sur 0 -- -- 39
2019-02-09 13:00:00 13.3 9 Sur 16 Sur 0 -- -- 44
2019-02-09 12:00:00 10.6 0 Calma 5 Sur 0 -- -- 64
2019-02-09 11:00:00 5.9 0 Calma 4 Sudeste 0 -- -- 84
2019-02-09 10:00:00 1.9 0 Calma 10 Noroeste 0 -- -- 96
2019-02-09 09:00:00 0.6 3 Norte 8 Norte 0 -- -- 96
2019-02-09 08:00:00 0.2 2 Norte 6 Noroeste 0 -- -- 96
2019-02-09 07:00:00 0.2 0 Calma 6 Nordeste 0 -- -- 96
2019-02-09 06:00:00 0.4 0 Calma 8 Nordeste 0 -- -- 96
2019-02-09 05:00:00 0.4 3 Nordeste 11 Sudoeste 0 -- -- 96
2019-02-09 04:00:00 0.2 3 Norte 11 Noroeste 0 -- -- 96
2019-02-09 03:00:00 0.1 0 Calma 8 Norte 0 -- -- 95
2019-02-09 02:00:00 0.1 0 Calma 6 Noroeste 0 -- -- 93
2019-02-09 01:00:00 0.4 0 Calma 5 Norte 0 -- -- 93
2019-02-09 00:00:00 0.9 0 Calma 3 Norte 0 -- -- 91
2019-02-08 23:00:00 1.6 0 Calma 3 Nordeste 0 -- -- 89
2019-02-08 22:00:00 2.4 0 Calma 3 Nordeste 0 -- -- 84
2019-02-08 21:00:00 3.8 0 Calma 3 Sudeste 0 -- -- 81
2019-02-08 20:00:00 5.9 0 Calma 6 Sudeste 0 -- -- 73
2019-02-08 19:00:00 8.1 4 Sudeste 14 Sur 0 -- -- 65
2019-02-08 18:00:00 10.8 7 Sur 13 Sudeste 0 -- -- 56
2019-02-08 17:00:00 12.6 7 Sur 15 Sur 0 -- -- 57
2019-02-08 16:00:00 12.4 8 Sur 17 Sudoeste 0 -- -- 61
2019-02-08 15:00:00 12.8 8 Sur 18 Sudeste 0 -- -- 60
2019-02-08 14:00:00 12.6 6 Sur 13 Este 0 -- -- 61
2019-02-08 13:00:00 11 0 Calma 8 Noroeste 0 -- -- 69
2019-02-08 12:00:00 8.8 2 Sudeste 6 Sur 0 -- -- 78
2019-02-08 11:00:00 7 4 Sur 8 Sur 0 -- -- 85
2019-02-08 10:00:00 6 2 Sur 5 Sudeste 0 -- -- 85
2019-02-08 09:00:00 5.6 2 Nordeste 6 Nordeste 0 -- -- 86
2019-02-08 08:00:00 5 3 Nordeste 7 Nordeste 0 -- -- 87
2019-02-08 07:00:00 5 2 Nordeste 7 Norte 0 -- -- 87
2019-02-08 06:00:00 5.2 0 Calma 5 Norte 0 -- -- 87
2019-02-08 05:00:00 5.6 0 Calma 3 Norte 0 -- -- 87
2019-02-08 04:00:00 6 0 Calma 7 Sudoeste 0 -- -- 85
2019-02-08 03:00:00 7.7 4 Sur 11 Sudoeste 0 -- -- 84
2019-02-08 02:00:00 7.9 5 Sur 10 Sudoeste 0 -- -- 83
2019-02-08 01:00:00 7.8 3 Sur 8 Sur 0 -- -- 81
2019-02-08 00:00:00 8.1 3 Sudeste 7 Sudoeste 0 -- -- 79
2019-02-07 23:00:00 8.5 0 Calma 4 Sur 0 -- -- 76
2019-02-07 22:00:00 9.2 3 Sur 10 Sudeste 0 -- -- 73
2019-02-07 21:00:00 9.5 5 Sur 14 Sudeste 0 -- -- 72
2019-02-07 20:00:00 10 9 Sudeste 17 Sur 0 -- -- 70
2019-02-07 19:00:00 10.8 8 Sur 15 Sur 0 -- -- 66
2019-02-07 18:00:00 11.4 6 Sur 20 Sudeste 0 -- -- 62
2019-02-07 17:00:00 12.3 6 Sur 18 Sur 0 -- -- 59
2019-02-07 16:00:00 12.7 9 Sur 21 Sur 0 -- -- 58
2019-02-07 15:00:00 13.3 11 Sur 20 Sur 0 -- -- 56
2019-02-07 14:00:00 13.8 9 Sur 25 Sur 0 -- -- 53
2019-02-07 13:00:00 13.9 10 Sur 18 Sudeste 0 -- -- 54
2019-02-07 12:00:00 9.5 0 Calma 4 Norte 0 -- -- 71
2019-02-07 11:00:00 4.8 0 Calma 11 Noroeste 0 -- -- 91
2019-02-07 10:00:00 2.1 3 Norte 11 Noroeste 0 -- -- 97
2019-02-07 09:00:00 0.4 2 Norte 12 Norte 0 -- -- 98
2019-02-07 08:00:00 -0.2 3 Norte 11 Norte 0 -- -- 98
2019-02-07 07:00:00 -0.1 3 Norte 14 Noroeste 0 -- -- 98
2019-02-07 06:00:00 0.1 2 Norte 12 Noroeste 0 -- -- 97
2019-02-07 05:00:00 0.3 3 Norte 12 Norte 0 -- -- 97
2019-02-07 04:00:00 0.6 3 Norte 10 Norte 0 -- -- 97
2019-02-07 03:00:00 0.8 0 Calma 8 Norte 0 -- -- 96
2019-02-07 02:00:00 0.5 0 Calma 9 Norte 0 -- -- 95
2019-02-07 01:00:00 1 0 Calma 5 Noroeste 0 -- -- 93
2019-02-07 00:00:00 1.4 0 Calma 2 Noroeste 0 -- -- 92
2019-02-06 23:00:00 2.3 0 Calma 4 Norte 0 -- -- 90
2019-02-06 22:00:00 3.5 0 Calma 4 Noroeste 0 -- -- 89
2019-02-06 21:00:00 4.7 0 Calma 5 Sudeste 0 -- -- 85
2019-02-06 20:00:00 5.9 0 Calma 2 Nordeste 0 -- -- 78
2019-02-06 19:00:00 8 0 Calma 3 Sur 0 -- -- 69
2019-02-06 18:00:00 11.5 0 Calma 13 Sur 0 -- -- 57
2019-02-06 17:00:00 14.7 7 Sur 14 Sudoeste 0 -- -- 48
2019-02-06 16:00:00 15.2 8 Sur 15 Sudeste 0 -- -- 46
2019-02-06 15:00:00 15.4 8 Sur 19 Sur 0 -- -- 43
2019-02-06 14:00:00 15.3 8 Sur 16 Sur 0 -- -- 43
2019-02-06 13:00:00 14 7 Sur 12 Sur 0 -- -- 51
2019-02-06 12:00:00 9.2 0 Calma 5 Sudeste 0 -- -- 69
2019-02-06 11:00:00 4.7 0 Calma 7 Norte 0 -- -- 85
2019-02-06 10:00:00 0.2 0 Calma 12 Norte 0 -- -- 96
2019-02-06 09:00:00 -1.5 3 Norte 12 Norte 0 -- -- 96
2019-02-06 08:00:00 -1.9 0 Calma 11 Norte 0 -- -- 96
2019-02-06 07:00:00 -1.6 3 Nordeste 10 Norte 0 -- -- 96
2019-02-06 06:00:00 -1.6 0 Calma 11 Noroeste 0 -- -- 95
2019-02-06 05:00:00 -1.3 0 Calma 10 Norte 0 -- -- 95
2019-02-06 04:00:00 -1 0 Calma 11 Norte 0 -- -- 94
2019-02-06 03:00:00 -0.8 0 Calma 8 Norte 0 -- -- 93
2019-02-06 02:00:00 -0.3 3 Norte 10 Norte 0 -- -- 93
2019-02-06 01:00:00 0.1 3 Norte 8 Noroeste 0 -- -- 92
2019-02-06 00:00:00 0.5 0 Calma 6 Norte 0 -- -- 90
2019-02-05 23:00:00 1.2 2 Norte 7 Noroeste 0 -- -- 88
2019-02-05 22:00:00 2.3 3 Norte 9 Noroeste 0 -- -- 85
2019-02-05 21:00:00 3.1 0 Calma 4 Este 0 -- -- 80
2019-02-05 20:00:00 4.6 0 Calma 4 Este 0 -- -- 72
2019-02-05 19:00:00 7.1 0 Calma 9 Sudoeste 0 -- -- 62
2019-02-05 18:00:00 11 4 Sur 16 Sur 0 -- -- 51
2019-02-05 17:00:00 13.4 7 Sur 16 Sur 0 -- -- 45
2019-02-05 16:00:00 14.5 8 Sur 17 Sur 0 -- -- 43
2019-02-05 15:00:00 14.4 8 Sur 21 Sur 0 -- -- 44
2019-02-05 14:00:00 13.9 8 Sur 21 Sur 0 -- -- 44
2019-02-05 13:00:00 12.3 3 Noroeste 9 Norte 0 -- -- 48
2019-02-05 12:00:00 7.5 0 Calma 7 Oeste 0 -- -- 61
2019-02-05 11:00:00 5.1 2 Sudoeste 7 Norte 0 -- -- 69
2019-02-05 10:00:00 2.5 0 Calma 7 Norte 0 -- -- 77
2019-02-05 09:00:00 0.5 0 Calma 8 Norte 0 -- -- 82
2019-02-05 08:00:00 -0.1 0 Calma 6 Noroeste 0 -- -- 81
2019-02-05 07:00:00 0.5 3 Norte 7 Nordeste 0 -- -- 80
2019-02-05 06:00:00 0.4 2 Norte 9 Noroeste 0 -- -- 79
2019-02-05 05:00:00 -0.1 2 Norte 5 Noroeste 0 -- -- 78
2019-02-05 04:00:00 -0.1 0 Calma 7 Oeste 0 -- -- 78
2019-02-05 03:00:00 0 2 Noroeste 5 Noroeste 0 -- -- 77
2019-02-05 02:00:00 -0.1 0 Calma 5 Noroeste 0 -- -- 74
2019-02-05 01:00:00 0.6 4 Norte 8 Norte 0 -- -- 72
2019-02-05 00:00:00 0.7 3 Norte 6 Nordeste 0 -- -- 70
2019-02-04 23:00:00 1.3 0 Calma 5 Norte 0 -- -- 68
2019-02-04 22:00:00 1.6 0 Calma 4 Sudeste 0 -- -- 67
2019-02-04 21:00:00 2 0 Calma 4 Noroeste 0 -- -- 65
2019-02-04 20:00:00 2.3 0 Calma 3 Norte 0 -- -- 61
2019-02-04 19:00:00 3 0 Calma 6 Sur 0 -- -- 50
2019-02-04 18:00:00 5.8 3 Sudeste 11 Sur 0 -- -- 38
2019-02-04 17:00:00 8.4 0 Calma 12 Sudoeste 0 -- -- 30
2019-02-04 16:00:00 10.7 8 Sur 18 Sur 0 -- -- 24
2019-02-04 15:00:00 11.1 10 Sur 18 Sur 0 -- -- 23
2019-02-04 14:00:00 10.9 6 Sur 15 Sudoeste 0 -- -- 22
2019-02-04 13:00:00 9 9 Sur 17 Sur 0 -- -- 29
2019-02-04 12:00:00 6.1 2 Sudeste 6 Sudeste 0 -- -- 41
2019-02-04 11:00:00 0.9 0 Calma 6 Sur 0 -- -- 53
2019-02-04 10:00:00 -3.5 0 Calma 5 Sudeste 0 -- -- 71
2019-02-04 09:00:00 -5.4 0 Calma 10 Noroeste 0 -- -- 73
2019-02-04 08:00:00 -5.4 0 Calma 9 Sudeste 0 -- -- 71
2019-02-04 07:00:00 -5 0 Calma 8 Sur 0 -- -- 65
2019-02-04 06:00:00 -4 0 Calma 9 Sur 0 -- -- 59
2019-02-04 05:00:00 -3 2 Sur 15 Sudeste 0 -- -- 55
2019-02-04 04:00:00 -2.4 7 Sur 14 Sudeste 0 -- -- 52
2019-02-04 03:00:00 -1.7 3 Sur 18 Sudoeste 0 -- -- 47
2019-02-04 02:00:00 -0.2 4 Sur 20 Sur 0 -- -- 40
2019-02-04 01:00:00 1.7 6 Sudoeste 33 Noroeste 0 -- -- 32
2019-02-04 00:00:00 4.2 9 Norte 27 Nordeste 0 -- -- 27
2019-02-03 23:00:00 2.8 3 Noroeste 19 Noroeste 0 -- -- 31
2019-02-03 22:00:00 4.1 5 Noroeste 44 Noroeste 0 -- -- 29
2019-02-03 21:00:00 2.3 5 Norte 23 Noroeste 0 -- -- 40
2019-02-03 20:00:00 0.9 2 Noroeste 12 Sudeste 0 -- -- 43
2019-02-03 19:00:00 2 0 Calma 20 Oeste 0 -- -- 38
2019-02-03 18:00:00 4.6 10 Noroeste 45 Noroeste 0 -- -- 31
2019-02-03 17:00:00 5.6 6 Norte 39 Noroeste 0 -- -- 29
2019-02-03 16:00:00 6.6 10 Norte 39 Norte 0 -- -- 29
2019-02-03 15:00:00 6.7 13 Norte 49 Norte 0 -- -- 29
2019-02-03 14:00:00 6.4 17 Norte 48 Noroeste 0 -- -- 27
2019-02-03 13:00:00 6.6 14 Norte 48 Noroeste 0 -- -- 25
2019-02-03 12:00:00 5.8 14 Norte 48 Noroeste 0 -- -- 27
2019-02-03 11:00:00 5.2 15 Noroeste 48 Noroeste 0 -- -- 27
2019-02-03 10:00:00 4.2 8 Norte 39 Norte 0 -- -- 28
2019-02-03 09:00:00 2.5 6 Norte 30 Noroeste 0 -- -- 28
2019-02-03 08:00:00 2.1 0 Calma 42 Sudoeste 0 -- -- 29
2019-02-03 07:00:00 2.7 10 Noroeste 37 Noroeste 0 -- -- 30
2019-02-03 06:00:00 3 12 Noroeste 45 Noroeste 0 -- -- 30
2019-02-03 05:00:00 3.2 9 Noroeste 34 Norte 0 -- -- 31
2019-02-03 04:00:00 2.7 8 Norte 33 Norte 0 -- -- 35
2019-02-03 03:00:00 2.4 5 Nordeste 24 Nordeste 0 -- -- 37
2019-02-03 02:00:00 2.7 0 Calma 27 Norte 0 -- -- 35
2019-02-03 01:00:00 2.9 6 Norte 41 Norte 0 -- -- 36
2019-02-03 00:00:00 3.7 10 Noroeste 34 Noroeste 0 -- -- 37
2019-02-02 23:00:00 2.3 0 Calma 20 Norte 0 -- -- 46
2019-02-02 22:00:00 4.1 3 Sudoeste 25 Noroeste 0 -- -- 38
2019-02-02 21:00:00 4.6 4 Sudoeste 30 Oeste 0 -- -- 40
2019-02-02 20:00:00 4.4 2 Norte 25 Sudoeste 0 -- -- 42
2019-02-02 19:00:00 4.8 8 Sudoeste 24 Oeste 0 -- -- 42
2019-02-02 18:00:00 4.9 8 Sudoeste 24 Sudeste 0 -- -- 43
2019-02-02 17:00:00 6.2 5 Norte 34 Noroeste 0 -- -- 50
2019-02-02 16:00:00 7.1 2 Sudoeste 16 Sudoeste 0 -- -- 72
2019-02-02 15:00:00 5.8 9 Sur 18 Sur 0 -- -- 75
2019-02-02 14:00:00 5.2 7 Sur 21 Sudeste 0 -- -- 77
2019-02-02 13:00:00 4.8 9 Sur 22 Sur 0 -- -- 78
2019-02-02 12:00:00 4 9 Sur 18 Sudoeste 0 -- -- 84
2019-02-02 11:00:00 3.9 8 Sur 14 Sur 0 -- -- 85
2019-02-02 10:00:00 3 5 Sur 9 Sur 0 -- -- 91
2019-02-02 09:00:00 2.5 3 Sur 8 Sur 0 -- -- 91
2019-02-02 08:00:00 2.4 4 Sudoeste 9 Sur 0 -- -- 91
2019-02-02 07:00:00 2.4 4 Sur 6 Sur 0 -- -- 92
2019-02-02 06:00:00 2.4 3 Sur 8 Sudoeste 0 -- -- 92
2019-02-02 05:00:00 2.5 3 Sudoeste 14 Sur 0 -- -- 93
2019-02-02 04:00:00 2.4 3 Sur 13 Sur 0 -- -- 93
2019-02-02 03:00:00 2.3 2 Sur 10 Sudeste 0.1 -- -- 90
2019-02-02 02:00:00 3.4 4 Sur 12 Sur 0.3 -- -- 87
2019-02-02 01:00:00 4 7 Sur 22 Sudeste 0.1 -- -- 86
2019-02-02 00:00:00 4.6 10 Sur 19 Sur 0 -- -- 88
2019-02-01 23:00:00 3.5 0 Calma 6 Sur 0 -- -- 88
2019-02-01 22:00:00 3.3 0 Calma 6 Sudeste 0 -- -- 83
2019-02-01 21:00:00 4 2 Nordeste 8 Norte 0 -- -- 74
2019-02-01 20:00:00 5.1 3 Norte 17 Sur 0 -- -- 69
2019-02-01 19:00:00 7.4 11 Sur 25 Sur 0 -- -- 58
2019-02-01 18:00:00 8.3 10 Sur 21 Sur 0 -- -- 56
2019-02-01 17:00:00 10 8 Sur 26 Sudeste 0 -- -- 54
2019-02-01 16:00:00 10.5 10 Sur 30 Sudeste 0 -- -- 59
2019-02-01 15:00:00 10.7 16 Sur 38 Sudeste 0 -- -- 56
2019-02-01 14:00:00 10.8 13 Sur 31 Sur 0 -- -- 65
2019-02-01 13:00:00 9.4 12 Sur 27 Sudoeste 0 -- -- 79
2019-02-01 12:00:00 8.6 8 Sudeste 18 Sur 0 -- -- 92
2019-02-01 11:00:00 7.6 3 Sur 11 Sudoeste 0.9 -- -- 97
2019-02-01 10:00:00 7.6 0 Calma 9 Sur 0.5 -- -- 98
2019-02-01 09:00:00 7.4 6 Sudoeste 12 Sudoeste 0.7 -- -- 98
2019-02-01 08:00:00 7.1 0 Calma 7 Sudoeste 0.5 -- -- 98
2019-02-01 07:00:00 6.4 0 Calma 2 Norte 0.8 -- -- 97
2019-02-01 06:00:00 5.9 0 Calma 0 Calma 1 -- -- 96
2019-02-01 05:00:00 5.7 0 Calma 3 Sudeste 0.1 -- -- 96
2019-02-01 04:00:00 5.4 0 Calma 4 Sudeste 0.1 -- -- 94
2019-02-01 03:00:00 5.5 0 Calma 6 Noroeste 0 -- -- 92
2019-02-01 02:00:00 6 0 Calma 5 Nordeste 0 -- -- 91
2019-02-01 01:00:00 6.6 0 Calma 15 Sudoeste 0 -- -- 92
2019-02-01 00:00:00 4.9 0 Calma 5 Nordeste 0 -- -- 92
2019-01-31 23:00:00 4.7 0 Calma 6 Oeste 0 -- -- 92
2019-01-31 22:00:00 4.3 0 Calma 5 Sudoeste 0 -- -- 91
2019-01-31 21:00:00 3.9 0 Calma 6 Sur 0 -- -- 90
2019-01-31 20:00:00 4.2 0 Calma 4 Sur 0 -- -- 85
2019-01-31 19:00:00 5.6 0 Calma 6 Sur 0 -- -- 80
2019-01-31 18:00:00 8.5 2 Sudeste 11 Sur 0 -- -- 73
2019-01-31 17:00:00 9.4 6 Sur 19 Sur 0 -- -- 70
2019-01-31 16:00:00 10.2 10 Sur 21 Sur 0 -- -- 65
2019-01-31 15:00:00 10.2 8 Sur 18 Sur 0 -- -- 64
2019-01-31 14:00:00 9.5 6 Sur 18 Sur 0 -- -- 63
2019-01-31 13:00:00 7.8 9 Sudeste 23 Sur 0 -- -- 66
2019-01-31 12:00:00 5.5 11 Sur 18 Sur 0 -- -- 74
2019-01-31 11:00:00 2.9 10 Sur 18 Sur 0 -- -- 86
2019-01-31 10:00:00 -0.9 0 Calma 4 Nordeste 0 -- -- 96
2019-01-31 09:00:00 -2.7 0 Calma 3 Sur 0 -- -- 95
2019-01-31 08:00:00 -2.7 0 Calma 4 Sudeste 0 -- -- 94
2019-01-31 07:00:00 -2.3 0 Calma 3 Sur 0 -- -- 94
2019-01-31 06:00:00 -2 0 Calma 2 Sudeste 0 -- -- 93
2019-01-31 05:00:00 -1.3 0 Calma 4 Sudeste 0 -- -- 92
2019-01-31 04:00:00 -0.7 0 Calma 5 Norte 0 -- -- 92
2019-01-31 03:00:00 -0.9 0 Calma 5 Sudeste 0 -- -- 92
2019-01-31 02:00:00 -1 0 Calma 8 Sudeste 0 -- -- 91
2019-01-31 01:00:00 -0.9 3 Sur 7 Sudeste 0 -- -- 90
2019-01-31 00:00:00 -1 0 Calma 6 Sur 0 -- -- 89
2019-01-30 23:00:00 -0.9 0 Calma 7 Sudeste 0 -- -- 89
2019-01-30 22:00:00 -0.5 0 Calma 7 Norte 0 -- -- 87
2019-01-30 21:00:00 -0.2 2 Sudeste 12 Sudeste 0 -- -- 85
2019-01-30 20:00:00 0.8 2 Nordeste 8 Nordeste 0 -- -- 77
2019-01-30 19:00:00 2.8 2 Nordeste 9 Oeste 0 -- -- 68
2019-01-30 18:00:00 5.8 4 Oeste 18 Sudoeste 0 -- -- 52
2019-01-30 17:00:00 7.3 7 Sur 28 Sur 0 -- -- 50
2019-01-30 16:00:00 9 6 Sur 26 Sur 0 -- -- 48
2019-01-30 15:00:00 9.5 3 Noroeste 22 Oeste 0 -- -- 40
2019-01-30 14:00:00 8.8 6 Sur 17 Sur 0 -- -- 48
2019-01-30 13:00:00 7.7 10 Sur 19 Sur 0 -- -- 54
2019-01-30 12:00:00 5.8 4 Sur 13 Sur 0 -- -- 73
2019-01-30 11:00:00 2.8 6 Sur 15 Sur 0 -- -- 88
2019-01-30 10:00:00 -0.6 2 Nordeste 7 Sur 0 -- -- 96
2019-01-30 09:00:00 -1.5 0 Calma 3 Nordeste 0 -- -- 96
2019-01-30 08:00:00 -0.9 0 Calma 9 Sur 0 -- -- 97
2019-01-30 07:00:00 -1.1 2 Sur 9 Sur 0 -- -- 97
2019-01-30 06:00:00 -2 0 Calma 13 Sudeste 0 -- -- 96
2019-01-30 05:00:00 -1.7 2 Sudeste 8 Sudoeste 0 -- -- 96
2019-01-30 04:00:00 -1.1 4 Sudeste 9 Sur 0 -- -- 95
2019-01-30 03:00:00 -0.9 0 Calma 5 Noroeste 0 -- -- 92
2019-01-30 02:00:00 0.6 0 Calma 16 Noroeste 0 -- -- 90
2019-01-30 01:00:00 1.3 4 Norte 9 Noroeste 0 -- -- 90
2019-01-30 00:00:00 1.6 4 Noroeste 12 Noroeste 0 -- -- 90
2019-01-29 23:00:00 1.8 0 Calma 7 Noroeste 0 -- -- 91
2019-01-29 22:00:00 1.9 0 Calma 4 Norte 0 -- -- 91
2019-01-29 21:00:00 2 0 Calma 6 Sudeste 0 -- -- 90
2019-01-29 20:00:00 2.2 0 Calma 11 Sudoeste 0 -- -- 89
2019-01-29 19:00:00 2.3 6 Sur 14 Sur 0 -- -- 89
2019-01-29 18:00:00 2.6 6 Sur 15 Sudeste 0 -- -- 86
2019-01-29 17:00:00 2.6 8 Sur 16 Sur 0 -- -- 85
2019-01-29 16:00:00 2.9 7 Sur 17 Sudeste 0 -- -- 84
2019-01-29 15:00:00 3 7 Sur 14 Sur 0 -- -- 85
2019-01-29 14:00:00 2.3 6 Sur 19 Sur 0 -- -- 88
2019-01-29 13:00:00 2.2 6 Sur 13 Sur 0 -- -- 88
2019-01-29 12:00:00 1.7 0 Calma 6 Norte 0 -- -- 89
2019-01-29 11:00:00 0.8 2 Nordeste 5 Norte 0 -- -- 94
2019-01-29 10:00:00 -0.2 0 Calma 6 Noroeste 0 -- -- 96
2019-01-29 09:00:00 -1 0 Calma 7 Norte 0 -- -- 96
2019-01-29 08:00:00 -1.1 0 Calma 10 Norte 0 -- -- 96
2019-01-29 07:00:00 -1.1 4 Norte 12 Norte 0 -- -- 96
2019-01-29 06:00:00 -0.7 6 Noroeste 19 Noroeste 0 -- -- 95
2019-01-29 05:00:00 -0.6 0 Calma 8 Sudeste 0 -- -- 92
2019-01-29 04:00:00 0.7 3 Sudoeste 16 Sudoeste 0 -- -- 89
2019-01-29 03:00:00 1.4 5 Sur 31 Sur 0 -- -- 86
2019-01-29 02:00:00 0.8 3 Sudoeste 18 Sudoeste 0 -- -- 89
2019-01-29 01:00:00 1 3 Sur 28 Oeste 0 -- -- 86
2019-01-29 00:00:00 3.4 8 Oeste 32 Nordeste 0 -- -- 75
2019-01-28 23:00:00 1.1 4 Norte 15 Nordeste 0 -- -- 98
2019-01-28 22:00:00 0.9 3 Nordeste 13 Noroeste 0 -- -- 97
2019-01-28 21:00:00 1.1 5 Norte 12 Noroeste 0 -- -- 97
2019-01-28 20:00:00 1.5 2 Norte 12 Nordeste 1 -- -- 96
2019-01-28 19:00:00 1.9 4 Nordeste 12 Nordeste 1.4 -- -- 95
2019-01-28 18:00:00 2.4 0 Calma 6 Nordeste 1.9 -- -- 94
2019-01-28 17:00:00 3.1 0 Calma 12 Sur 1.4 -- -- 94
2019-01-28 16:00:00 3.3 0 Calma 10 Este 0.8 -- -- 93
2019-01-28 15:00:00 3.2 0 Calma 16 Sudeste 0.8 -- -- 92
2019-01-28 14:00:00 3.1 3 Sur 19 Sudeste 0 -- -- 91
2019-01-28 13:00:00 1.9 5 Sur 8 Sur 1 -- -- 89
2019-01-28 12:00:00 0.9 0 Calma 14 Sudoeste 0.8 -- -- 86
2019-01-28 11:00:00 1.4 7 Sur 15 Sur 0 -- -- 77
2019-01-28 10:00:00 0.1 5 Sur 12 Sur 0 -- -- 79
2019-01-28 09:00:00 -0.8 5 Sur 17 Sudoeste 0 -- -- 80
2019-01-28 08:00:00 -1.6 0 Calma 9 Sudeste 0 -- -- 78
2019-01-28 07:00:00 -1.9 0 Calma 9 Sudeste 0 -- -- 78
2019-01-28 06:00:00 -2 0 Calma 6 Sudeste 0 -- -- 79
2019-01-28 05:00:00 -1.3 0 Calma 5 Noroeste 0 -- -- 77
2019-01-28 04:00:00 -0.2 2 Norte 7 Noroeste 0 -- -- 72
2019-01-28 03:00:00 1.4 2 Noroeste 14 Noroeste 0 -- -- 62
2019-01-28 02:00:00 3.5 2 Noroeste 17 Norte 0 -- -- 46
2019-01-28 01:00:00 5.3 5 Sur 38 Oeste 0 -- -- 42
2019-01-28 00:00:00 5.8 7 Sur 37 Sudoeste 0 -- -- 42
2019-01-27 23:00:00 6.4 11 Sudoeste 39 Sudoeste 0 -- -- 41
2019-01-27 22:00:00 6.4 10 Sudoeste 32 Sur 0 -- -- 41
2019-01-27 21:00:00 6.2 9 Oeste 32 Noroeste 0 -- -- 42
2019-01-27 20:00:00 3.4 0 Calma 15 Sur 0 -- -- 67
2019-01-27 19:00:00 4.2 4 Nordeste 11 Nordeste 0 -- -- 69
2019-01-27 18:00:00 5.8 0 Calma 30 Noroeste 0 -- -- 59
2019-01-27 17:00:00 8.9 4 Noroeste 18 Nordeste 0 -- -- 61
2019-01-27 16:00:00 8.5 2 Este 15 Sudeste 0.8 -- -- 77
2019-01-27 15:00:00 9.3 9 Sur 20 Sur 0 -- -- 68
2019-01-27 14:00:00 9.6 8 Sur 16 Sur 0 -- -- 64
2019-01-27 13:00:00 9.5 5 Sudeste 12 Sudeste 0 -- -- 69
2019-01-27 12:00:00 6.3 0 Calma 5 Sudeste 0 -- -- 83
2019-01-27 11:00:00 3.6 0 Calma 9 Nordeste 0 -- -- 88
2019-01-27 10:00:00 2.3 0 Calma 6 Oeste 0 -- -- 92
2019-01-27 09:00:00 1.3 0 Calma 7 Norte 0 -- -- 94
2019-01-27 08:00:00 0.9 3 Norte 12 Norte 0 -- -- 94
2019-01-27 07:00:00 0.5 2 Norte 9 Noroeste 0 -- -- 95
2019-01-27 06:00:00 0.1 2 Norte 10 Noroeste 0 -- -- 96
2019-01-27 05:00:00 -0.4 0 Calma 11 Noroeste 0 -- -- 96
2019-01-27 04:00:00 -1.1 0 Calma 4 Nordeste 0 -- -- 95
2019-01-27 03:00:00 -0.8 0 Calma 7 Noroeste 0 -- -- 95
2019-01-27 02:00:00 -0.6 0 Calma 8 Norte 0 -- -- 95
2019-01-27 01:00:00 -0.4 0 Calma 5 Norte 0 -- -- 94
2019-01-27 00:00:00 -0.2 0 Calma 6 Norte 0 -- -- 93
2019-01-26 23:00:00 0 0 Calma -- -- 0 -- -- 91
2019-01-26 22:00:00 0.8 0 Calma -- -- 0 -- -- 89
2019-01-26 21:00:00 1.9 0 Calma 3 Sur 0 -- -- 85
2019-01-26 20:00:00 3.3 0 Calma 5 Sudeste 0 -- -- 80
2019-01-26 19:00:00 5.7 2 Sudeste 8 Sudeste 0 -- -- 75
2019-01-26 18:00:00 8.6 4 Sur 12 Sur 0 -- -- 66
2019-01-26 17:00:00 10.6 8 Sur 17 Sur 0 -- -- 61
2019-01-26 16:00:00 11.9 10 Sur 20 Sur 0 -- -- 56
2019-01-26 15:00:00 12.2 10 Sur 24 Sur 0 -- -- 56
2019-01-26 14:00:00 11.3 17 Sudeste 31 Sudeste 0 -- -- 56
2019-01-26 13:00:00 12.3 12 Sur 22 Sur 0 -- -- 53
2019-01-26 12:00:00 8.5 0 Calma 4 Sur 0 -- -- 65
2019-01-26 11:00:00 3 0 Calma 3 Sudeste 0 -- -- 82
2019-01-26 10:00:00 -0.5 0 Calma -- -- 0 -- -- 90
2019-01-26 09:00:00 -1.6 0 Calma 11 Noroeste 0 -- -- 89
2019-01-26 08:00:00 -1.5 0 Calma 8 Noroeste 0 -- -- 87
2019-01-26 07:00:00 -1.1 3 Norte 8 Noroeste 0 -- -- 86
2019-01-26 06:00:00 -0.3 0 Calma 6 Noroeste 0 -- -- 84
2019-01-26 05:00:00 0.1 0 Calma 9 Sudeste 0 -- -- 82
2019-01-26 04:00:00 0.5 0 Calma 5 Sudeste 0 -- -- 79
2019-01-26 03:00:00 1.8 0 Calma 7 Sudoeste 0 -- -- 73
2019-01-26 02:00:00 3.6 4 Sudeste 10 Sudeste 0 -- -- 62
2019-01-26 01:00:00 6.1 2 Este 22 Sur 0 -- -- 51
2019-01-26 00:00:00 8.1 11 Sur 20 Sur 0 -- -- 47
2019-01-25 23:00:00 10 4 Sur 28 Noroeste 0 -- -- 41
2019-01-25 22:00:00 12.5 9 Norte 56 Norte 0 -- -- 38
2019-01-25 21:00:00 12.4 9 Norte 53 Noroeste 0 -- -- 39
2019-01-25 20:00:00 11.9 10 Norte 59 Norte 0 -- -- 39
2019-01-25 19:00:00 -- -- -- -- -- -- -- -- --
2019-01-25 18:00:00 12.1 14 Nordeste 50 Norte 0 -- -- 37
2019-01-25 17:00:00 12.5 14 Norte 55 Noroeste 0 -- -- 38
2019-01-25 16:00:00 13.6 13 Norte 46 Norte 0 -- -- 37
2019-01-25 15:00:00 13.4 11 Norte 43 Norte 0 -- -- 38
2019-01-25 14:00:00 13.6 15 Norte 35 Norte 0 -- -- 37
2019-01-25 13:00:00 11.3 16 Sur 35 Sudoeste 0 -- -- 37
2019-01-25 12:00:00 10.5 14 Sur 24 Sur 0 -- -- 37
2019-01-25 11:00:00 9.2 10 Sur 32 Sur 0 -- -- 38
2019-01-25 10:00:00 10.6 11 Noroeste 47 Noroeste 0 -- -- 38
2019-01-25 09:00:00 8.5 4 Noroeste 44 Noroeste 0 -- -- 40
2019-01-25 08:00:00 8.4 15 Noroeste 50 Noroeste 0 -- -- 40
2019-01-25 07:00:00 8 18 Norte 54 Norte 0 -- -- 39
2019-01-25 06:00:00 6.5 13 Norte 59 Oeste 0 -- -- 40
2019-01-25 05:00:00 5.9 14 Norte 61 Noroeste 0 -- -- 37
2019-01-25 04:00:00 5.2 9 Norte 35 Norte 0 -- -- 34
2019-01-25 03:00:00 4.8 18 Nordeste 37 Norte 0 -- -- 32
2019-01-25 02:00:00 4.3 12 Norte 48 Oeste 0 -- -- 32
2019-01-25 01:00:00 4.3 10 Norte 39 Noroeste 0 -- -- 32
2019-01-25 00:00:00 4.3 14 Nordeste 40 Norte 0 -- -- 29
2019-01-24 23:00:00 1.1 3 Sur 28 Noroeste 0 -- -- 32
2019-01-24 22:00:00 4 8 Norte 35 Oeste 0 -- -- 27
2019-01-24 21:00:00 3.7 5 Norte 40 Noroeste 0 -- -- 29
2019-01-24 20:00:00 2.8 0 Calma 27 Noroeste 0 -- -- 31
2019-01-24 19:00:00 3.8 5 Nordeste 52 Nordeste 0 -- -- 29
2019-01-24 18:00:00 4 10 Norte 48 Noroeste 0 -- -- 30
2019-01-24 17:00:00 4.7 8 Norte 53 Norte 0 -- -- 29
2019-01-24 16:00:00 5.9 16 Norte 51 Noroeste 0 -- -- 28
2019-01-24 15:00:00 6.4 15 Norte 48 Norte 0 -- -- 29
2019-01-24 14:00:00 6.6 10 Noroeste 59 Noroeste 0 -- -- 29
2019-01-24 13:00:00 6.2 15 Noroeste 45 Norte 0 -- -- 30
2019-01-24 12:00:00 5.6 14 Noroeste 46 Noroeste 0 -- -- 33
2019-01-24 11:00:00 4 10 Noroeste 30 Noroeste 0 -- -- 39
2019-01-24 10:00:00 2.1 11 Noroeste 65 Noroeste 0 -- -- 43
2019-01-24 09:00:00 0.8 14 Norte 49 Noroeste 0 -- -- 46
2019-01-24 08:00:00 0.4 12 Norte 44 Noroeste 0 -- -- 47
2019-01-24 07:00:00 0.7 13 Norte 39 Noroeste 0 -- -- 50
2019-01-24 06:00:00 0.1 12 Norte 50 Norte 0 -- -- 58
2019-01-24 05:00:00 -0.3 12 Norte 32 Nordeste 0 -- -- 72
2019-01-24 04:00:00 -0.9 6 Norte 34 Oeste 0 -- -- 77
2019-01-24 03:00:00 -0.2 5 Norte 31 Noroeste 0 -- -- 66
2019-01-24 02:00:00 -0.6 7 Nordeste 27 Noroeste 0 -- -- 77
2019-01-24 01:00:00 -0.6 3 Nordeste 26 Norte 0 -- -- 78
2019-01-24 00:00:00 -1.1 0 Calma 8 Sudeste 0 -- -- 93
2019-01-23 23:00:00 -0.5 0 Calma 8 Oeste 0.4 -- -- 92
2019-01-23 22:00:00 0 0 Calma 9 Sudeste 0 -- -- 91
2019-01-23 21:00:00 0.5 0 Calma 4 Sudoeste 0.2 -- -- 89
2019-01-23 20:00:00 1 0 Calma 21 Norte 0 -- -- 81
2019-01-23 19:00:00 1.7 3 Sur 35 Sudoeste 0 -- -- 71
2019-01-23 18:00:00 2.4 9 Norte 42 Noroeste 0 -- -- 67
2019-01-23 17:00:00 2.1 3 Nordeste 27 Norte 0.2 -- -- 92
2019-01-23 16:00:00 2.1 0 Calma 14 Sudeste 0.5 -- -- 95
2019-01-23 15:00:00 1.8 0 Calma 6 Sudeste 0.3 -- -- 93
2019-01-23 14:00:00 1.5 0 Calma 13 Noroeste 0 -- -- 92
2019-01-23 13:00:00 0.8 3 Norte 9 Noroeste 0 -- -- 93
2019-01-23 12:00:00 0 3 Norte 10 Noroeste 0.1 -- -- 94
2019-01-23 11:00:00 -0.7 4 Noroeste 10 Norte 0.1 -- -- 94
2019-01-23 10:00:00 -1.4 2 Norte 6 Norte 0 -- -- 93
2019-01-23 09:00:00 -2.2 0 Calma 8 Sudeste 0 -- -- 92
2019-01-23 08:00:00 -2.5 4 Sudeste 6 Sudeste 0 -- -- 92
2019-01-23 07:00:00 -2.9 0 Calma 6 Norte 0 -- -- 93
2019-01-23 06:00:00 -3.5 0 Calma 8 Sudeste 0 -- -- 92
2019-01-23 05:00:00 -3.6 0 Calma 4 Sudoeste 0 -- -- 90
2019-01-23 04:00:00 -2.9 0 Calma 4 Sur 0 -- -- 90
2019-01-23 03:00:00 -2.6 0 Calma 5 Sudeste 0 -- -- 90
2019-01-23 02:00:00 -2.5 0 Calma 4 Sudeste 0 -- -- 89
2019-01-23 01:00:00 -1.7 0 Calma 7 Sur 0 -- -- 87
2019-01-23 00:00:00 -1.1 0 Calma 6 Sudeste 0 -- -- 85
2019-01-22 23:00:00 -0.9 0 Calma 4 Noroeste 0 -- -- 83
2019-01-22 22:00:00 -0.2 0 Calma 12 Norte 0 -- -- 81
2019-01-22 21:00:00 0 2 Nordeste 5 Norte 0 -- -- 79
2019-01-22 20:00:00 0.5 0 Calma 7 Sudeste 0 -- -- 77
2019-01-22 19:00:00 1.6 3 Sur 12 Sur 0 -- -- 71
2019-01-22 18:00:00 3 8 Sur 17 Sudeste 0 -- -- 64
2019-01-22 17:00:00 4.3 8 Sur 17 Sur 0 -- -- 57
2019-01-22 16:00:00 5.4 6 Sur 20 Sur 0 -- -- 45
2019-01-22 15:00:00 6.1 10 Sur 20 Sur 0 -- -- 44
2019-01-22 14:00:00 6.7 9 Sur 23 Sudeste 0 -- -- 47
2019-01-22 13:00:00 5.1 7 Sur 13 Sudoeste 0 -- -- 61
2019-01-22 12:00:00 0.9 3 Norte 7 Noroeste 0 -- -- 80
2019-01-22 11:00:00 -1.3 2 Norte 9 Nordeste 0 -- -- 85
2019-01-22 10:00:00 -3.7 2 Norte 8 Nordeste 0 -- -- 95
2019-01-22 09:00:00 -3.9 0 Calma 5 Norte 0 -- -- 94
2019-01-22 08:00:00 -4.4 3 Nordeste 8 Norte 0 -- -- 92
2019-01-22 07:00:00 -4.8 3 Nordeste 8 Noroeste 0 -- -- 92
2019-01-22 06:00:00 -4.7 3 Norte 8 Norte 0 -- -- 92
2019-01-22 05:00:00 -4.7 2 Norte 7 Norte 0 -- -- 92
2019-01-22 04:00:00 -4.4 0 Calma 5 Norte 0 -- -- 92
2019-01-22 03:00:00 -3.9 0 Calma 7 Noroeste 0 -- -- 92
2019-01-22 02:00:00 -3.7 2 Nordeste 5 Nordeste 0 -- -- 93
2019-01-22 01:00:00 -3.5 0 Calma 5 Norte 0 -- -- 92
2019-01-22 00:00:00 -2.7 0 Calma 9 Noroeste 0 -- -- 91
2019-01-21 23:00:00 -2.4 0 Calma 6 Norte 0 -- -- 89
2019-01-21 22:00:00 -1.8 0 Calma 7 Noroeste 0 -- -- 87
2019-01-21 21:00:00 -1.1 0 Calma 3 Sur 0 -- -- 86
2019-01-21 20:00:00 0.4 0 Calma 4 Sur 0 -- -- 84
2019-01-21 19:00:00 2.3 0 Calma 9 Sudoeste 0 -- -- 81
2019-01-21 18:00:00 4.8 6 Sur 19 Sur 0 -- -- 76
2019-01-21 17:00:00 6.5 10 Sur 20 Sur 0 -- -- 59
2019-01-21 16:00:00 9 4 Norte 21 Noroeste 0 -- -- 35
2019-01-21 15:00:00 8.1 6 Norte 25 Noroeste 0 -- -- 36
2019-01-21 14:00:00 8.4 4 Norte 31 Noroeste 0 -- -- 40
2019-01-21 13:00:00 7.8 2 Nordeste 8 Nordeste 0 -- -- 52
2019-01-21 12:00:00 5.5 4 Sudeste 12 Sur 0 -- -- 84
2019-01-21 11:00:00 1.6 3 Sudeste 5 Sudeste 0 -- -- 95
2019-01-21 10:00:00 -1.6 0 Calma 5 Noroeste 0 -- -- 99
2019-01-21 09:00:00 -3.1 0 Calma 9 Noroeste 0 -- -- 98
2019-01-21 08:00:00 -3.4 0 Calma 10 Noroeste 0 -- -- 98
2019-01-21 07:00:00 -3.2 0 Calma 7 Noroeste 0 -- -- 97
2019-01-21 06:00:00 -2.6 2 Norte 11 Noroeste 0 -- -- 97
2019-01-21 05:00:00 -2.7 0 Calma 5 Norte 0 -- -- 97
2019-01-21 04:00:00 -2.7 0 Calma 8 Noroeste 0 -- -- 97
2019-01-21 03:00:00 -2.4 0 Calma 5 Noroeste 0 -- -- 97
2019-01-21 02:00:00 -2 0 Calma 5 Oeste 0 -- -- 97
2019-01-21 01:00:00 -1.5 0 Calma 3 Sudeste 0 -- -- 93
2019-01-21 00:00:00 -0.3 0 Calma 7 Sur 0 -- -- 92
2019-01-20 23:00:00 0.7 2 Sudeste 5 Nordeste 0 -- -- 92
2019-01-20 22:00:00 0.4 2 Norte 5 Nordeste 0 -- -- 92
2019-01-20 21:00:00 -0.3 0 Calma 5 Norte 0 -- -- 91
2019-01-20 20:00:00 0 0 Calma 4 Norte 0 -- -- 87
2019-01-20 19:00:00 1.4 0 Calma 5 Nordeste 0 -- -- 83
2019-01-20 18:00:00 3.7 0 Calma 6 Nordeste 0 -- -- 75
2019-01-20 17:00:00 6.3 3 Nordeste 14 Nordeste 0 -- -- 69
2019-01-20 16:00:00 7.3 6 Nordeste 13 Este 0 -- -- 67
2019-01-20 15:00:00 6.8 7 Nordeste 17 Nordeste 0 -- -- 69
2019-01-20 14:00:00 6.6 6 Nordeste 15 Nordeste 0 -- -- 73
2019-01-20 13:00:00 6.3 4 Norte 21 Noroeste 0 -- -- 82
2019-01-20 12:00:00 4.6 8 Norte 15 Norte 0 -- -- 88
2019-01-20 11:00:00 2.8 3 Noroeste 11 Noroeste 0.3 -- -- 92
2019-01-20 10:00:00 1.9 4 Noroeste 9 Noroeste 0 -- -- 95
2019-01-20 09:00:00 1.2 2 Norte 7 Norte 0 -- -- 96
2019-01-20 08:00:00 0.7 0 Calma 8 Norte 0 -- -- 96
2019-01-20 07:00:00 0.5 0 Calma 6 Noroeste 0 -- -- 95
2019-01-20 06:00:00 0.2 0 Calma 3 Noroeste 0 -- -- 94
2019-01-20 05:00:00 -0.1 0 Calma 4 Sudeste 0 -- -- 94
2019-01-20 04:00:00 -0.4 0 Calma 3 Sudeste 0 -- -- 93
2019-01-20 03:00:00 -0.7 0 Calma 4 Sudeste 0 -- -- 93
2019-01-20 02:00:00 -0.7 0 Calma 2 Sur 0 -- -- 93
2019-01-20 01:00:00 -1.1 0 Calma 3 Sur 0 -- -- 93
2019-01-20 00:00:00 -1.6 0 Calma 4 Sudeste 0 -- -- 92
2019-01-19 23:00:00 -1.3 0 Calma 0 Calma 0 -- -- 91
2019-01-19 22:00:00 -1 0 Calma 3 Sudeste 0 -- -- 89
2019-01-19 21:00:00 -0.4 2 Sudeste 4 Sudeste 0 -- -- 87
2019-01-19 20:00:00 0.4 0 Calma 8 Sur 0 -- -- 82
2019-01-19 19:00:00 2.1 2 Sudeste 6 Sudeste 0 -- -- 76
2019-01-19 18:00:00 4.3 3 Sudoeste 12 Sudeste 0 -- -- 66
2019-01-19 17:00:00 6.1 5 Sur 16 Sur 0 -- -- 61
2019-01-19 16:00:00 7 8 Sur 20 Sudeste 0 -- -- 59
2019-01-19 15:00:00 7.9 9 Sur 20 Sur 0 -- -- 60
2019-01-19 14:00:00 7.8 10 Sur 19 Sudoeste 0 -- -- 64
2019-01-19 13:00:00 7 8 Sur 15 Sur 0 -- -- 70
2019-01-19 12:00:00 4.2 0 Calma 3 Este 0 -- -- 76
2019-01-19 11:00:00 0.3 0 Calma 3 Nordeste 0 -- -- 89
2019-01-19 10:00:00 -2.9 0 Calma 4 Norte 0 -- -- 96
2019-01-19 09:00:00 -3.6 0 Calma 4 Nordeste 0 -- -- 96
2019-01-19 08:00:00 -3.1 0 Calma 5 Noroeste 0 -- -- 96
2019-01-19 07:00:00 -2.8 0 Calma 5 Norte 0 -- -- 96
2019-01-19 06:00:00 -2.9 0 Calma 5 Norte 0 -- -- 96
2019-01-19 05:00:00 -2.6 0 Calma 5 Noroeste 0 -- -- 96
2019-01-19 04:00:00 -2 0 Calma 3 Norte 0 -- -- 95
2019-01-19 03:00:00 -1.3 0 Calma 6 Norte 0 -- -- 95
2019-01-19 02:00:00 -0.8 0 Calma 5 Norte 0 -- -- 95
2019-01-19 01:00:00 -0.7 2 Norte 5 Norte 0 -- -- 94
2019-01-19 00:00:00 -0.3 0 Calma 9 Norte 0 -- -- 93